• Join FlightAware (Why Join?)
  • Login
  • US Flag 
11:28PM EST


 

Airport Tracker/Info


-or-


 

Live Flight TrackerFlight Track Log ✈ N820JA ✈ 24-Apr-2012 ✈ KGWW - KARW

Flight Track Log - Related Links

Times and Time Zones

All times are in EDT time to prevent confusion due to time zone crossing. See the N820JA flight status page for this flight to view local times or setup timezone preferences in your user account.

Time Position Orientation Groundspeed Altitude Reporting Facility
EDT Latitude Longitude Course Direction KTS MPH feet Rate Location/Type
03:11PM 35.2931 -77.7881 172° South 114 131 2,400  Level Washington Center
03:12PM 35.2597 -77.7822 171° South 110 127 2,500  Climbing Washington Center
03:13PM 35.2286 -77.7761 203° Southwest 102 117 2,400 60 Descending Washington Center
03:14PM 35.2053 -77.7883 207° Southwest 93 107 2,700  Climbing Washington Center
03:15PM 35.1822 -77.8028 212° Southwest 99 114 2,400 -60 Descending Washington Center
03:16PM 35.1567 -77.8225 215° Southwest 104 120 2,600 -60 Climbing Washington Center
03:17PM 35.1333 -77.8422 216° Southwest 102 117 2,300 -240 Descending Washington Center
03:18PM 35.1142 -77.8594 217° Southwest 97 112 2,200 -60 Descending Washington Center
03:19PM 35.0953 -77.8767 208° Southwest 90 104 2,200 60 Level Washington Center
03:20PM 35.0697 -77.8936 201° Southwest 97 112 2,400 120 Climbing Washington Center
03:21PM 35.0444 -77.9056 215° Southwest 105 121 2,500  Climbing Washington Center
03:22PM 35.0211 -77.9253 218° Southwest 98 113 2,500  Level Washington Center
03:23PM 34.9978 -77.9475 237° Southwest 96 110 2,500 -180 Level Washington Center
03:24PM 34.9869 -77.9675 215° Southwest 92 106 2,200 -180 Descending Washington Center
03:25PM 34.9617 -77.9894 223° Southwest 93 107 2,200  Level Washington Center
03:33PM 34.7504 -78.2291 221° Southwest  Level FlightAware Approximate
03:34PM 34.7226 -78.2585 221° Southwest  Level FlightAware Approximate
03:35PM 34.6949 -78.2879 221° Southwest  Level FlightAware Approximate
03:36PM 34.6671 -78.3174 221° Southwest  Level FlightAware Approximate
03:37PM 34.6393 -78.3467 221° Southwest  Level FlightAware Approximate
03:38PM 34.6116 -78.3761 221° Southwest  Level FlightAware Approximate
03:39PM 34.5838 -78.4054 221° Southwest  Level FlightAware Approximate
03:40PM 34.5560 -78.4348 221° Southwest  Level FlightAware Approximate
03:41PM 34.5282 -78.4641 221° Southwest  Level FlightAware Approximate
03:42PM 34.5004 -78.4934 221° Southwest  Level FlightAware Approximate
03:43PM 34.4726 -78.5226 221° Southwest  Level FlightAware Approximate
03:44PM 34.4448 -78.5519 221° Southwest  Level FlightAware Approximate
03:45PM 34.4170 -78.5811 221° Southwest  Level FlightAware Approximate
03:46PM 34.3891 -78.6103 220° Southwest  Level FlightAware Approximate
03:47PM 34.3610 -78.6392 221° Southwest  Level FlightAware Approximate
03:48PM 34.3332 -78.6683 221° Southwest  Level FlightAware Approximate
03:49PM 34.3054 -78.6975 221° Southwest  Level FlightAware Approximate
03:50PM 34.2775 -78.7266 221° Southwest  Level FlightAware Approximate
03:51PM 34.2496 -78.7557 221° Southwest  Level FlightAware Approximate
03:52PM 34.2218 -78.7848 221° Southwest  Level FlightAware Approximate
03:53PM 34.1939 -78.8139 221° Southwest  Level FlightAware Approximate
03:54PM 34.1660 -78.8430 221° Southwest  Level FlightAware Approximate
03:55PM 34.1381 -78.8720 221° Southwest  Level FlightAware Approximate
03:56PM 34.1102 -78.9010 221° Southwest  Level FlightAware Approximate
03:57PM 34.0824 -78.9300 221° Southwest  Level FlightAware Approximate
03:58PM 34.0544 -78.9590 221° Southwest  Level FlightAware Approximate
03:59PM 34.0265 -78.9880 221° Southwest  Level FlightAware Approximate
04:00PM 33.9986 -79.0169 221° Southwest  Level FlightAware Approximate
04:01PM 33.9707 -79.0458 221° Southwest  Level FlightAware Approximate
04:02PM 33.9427 -79.0747 221° Southwest  Level FlightAware Approximate
04:03PM 33.9148 -79.1036 221° Southwest  Level FlightAware Approximate
04:04PM 33.8869 -79.1325 221° Southwest  Level FlightAware Approximate
04:05PM 33.8589 -79.1613 221° Southwest  Level FlightAware Approximate
04:06PM 33.8310 -79.1902 221° Southwest  Level FlightAware Approximate
04:07PM 33.8030 -79.2190 221° Southwest  Level FlightAware Approximate
04:08PM 33.7750 -79.2478 221° Southwest  Level FlightAware Approximate
04:09PM 33.7470 -79.2766 221° Southwest  Level FlightAware Approximate
04:10PM 33.7190 -79.3053 221° Southwest  Level FlightAware Approximate
04:11PM 33.6910 -79.3341 220° Southwest  Level FlightAware Approximate
04:12PM 33.6630 -79.3628 220° Southwest  Level FlightAware Approximate
04:13PM 33.6350 -79.3915 220° Southwest  Level FlightAware Approximate
04:14PM 33.6070 -79.4202 220° Southwest  Level FlightAware Approximate
04:15PM 33.5790 -79.4488 220° Southwest  Level FlightAware Approximate
04:16PM 33.5510 -79.4774 220° Southwest  Level FlightAware Approximate
04:17PM 33.5229 -79.5061 220° Southwest  Level FlightAware Approximate
04:18PM 33.4949 -79.5347 220° Southwest  Level FlightAware Approximate
04:19PM 33.4668 -79.5633 220° Southwest  Level FlightAware Approximate
04:20PM 33.4388 -79.5918 220° Southwest  Level FlightAware Approximate
04:21PM 33.4107 -79.6204 205° Southwest  Level FlightAware Approximate
04:22PM 33.3778 -79.6391 221° Southwest  Level FlightAware Approximate
04:23PM 33.3499 -79.6679 221° Southwest  Level FlightAware Approximate
04:24PM 33.3220 -79.6967 221° Southwest  Level FlightAware Approximate
04:25PM 33.2941 -79.7254 221° Southwest  Level FlightAware Approximate
04:26PM 33.2662 -79.7541 221° Southwest  Level FlightAware Approximate
04:27PM 33.2383 -79.7828 221° Southwest  Level FlightAware Approximate
04:28PM 33.2104 -79.8115 221° Southwest  Level FlightAware Approximate
04:29PM 33.1825 -79.8402 221° Southwest  Level FlightAware Approximate
04:30PM 33.1545 -79.8688 221° Southwest  Level FlightAware Approximate
04:31PM 33.1266 -79.8975 221° Southwest  Level FlightAware Approximate
04:32PM 33.0987 -79.9261 221° Southwest  Level FlightAware Approximate
04:33PM 33.0707 -79.9547 221° Southwest  Level FlightAware Approximate
04:34PM 33.0428 -79.9833 221° Southwest  Level FlightAware Approximate
04:35PM 33.0148 -80.0118 221° Southwest  Level FlightAware Approximate
04:36PM 32.9868 -80.0404 226° Southwest  Level FlightAware Approximate
04:37PM 32.9619 -80.0715 220° Southwest  Level FlightAware Approximate
04:38PM 32.9338 -80.0998 220° Southwest  Level FlightAware Approximate
04:39PM 32.9057 -80.1281 220° Southwest  Level FlightAware Approximate
04:40PM 32.8776 -80.1564 220° Southwest  Level FlightAware Approximate
04:41PM 32.8494 -80.1847 220° Southwest  Level FlightAware Approximate
04:42PM 32.8213 -80.2129 220° Southwest  Level FlightAware Approximate
04:43PM 32.7931 -80.2411 220° Southwest  Level FlightAware Approximate
04:44PM 32.7650 -80.2693 220° Southwest  Level FlightAware Approximate
04:45PM 32.7368 -80.2975 220° Southwest  Level FlightAware Approximate
04:46PM 32.7086 -80.3257 220° Southwest  Level FlightAware Approximate
04:47PM 32.6805 -80.3538 220° Southwest  Level FlightAware Approximate
04:48PM 32.6523 -80.3820 220° Southwest  Level FlightAware Approximate
04:49PM 32.6241 -80.4101 220° Southwest  Level FlightAware Approximate
04:50PM 32.5959 -80.4382 219° Southwest  Level FlightAware Approximate
04:51PM 32.5674 -80.4659 220° Southwest  Level FlightAware Approximate
04:52PM 32.5393 -80.4941 220° Southwest  Level FlightAware Approximate
04:53PM 32.5112 -80.5222 220° Southwest  Level FlightAware Approximate
04:54PM 32.4830 -80.5503 220° Southwest  Level FlightAware Approximate
04:55PM 32.4549 -80.5785 228° Southwest  Level FlightAware Approximate
04:56PM 32.4302 -80.6108 40° Northeast  Level Estimated
04:57PM 33.0129 -80.0194 220° Southwest  Level FlightAware Approximate
04:58PM 32.9848 -80.0478 220° Southwest  Level FlightAware Approximate
04:59PM 32.9567 -80.0761 220° Southwest  Level FlightAware Approximate
05:00PM 32.9286 -80.1045 220° Southwest  Level FlightAware Approximate
05:01PM 32.9005 -80.1328 220° Southwest  Level FlightAware Approximate
05:02PM 32.8723 -80.1611 220° Southwest  Level FlightAware Approximate
05:03PM 32.8442 -80.1894 220° Southwest  Level FlightAware Approximate
05:04PM 32.8161 -80.2176 220° Southwest  Level FlightAware Approximate
05:05PM 32.7879 -80.2459 220° Southwest  Level FlightAware Approximate
05:06PM 32.7598 -80.2741 220° Southwest  Level FlightAware Approximate
05:07PM 32.7317 -80.3023 220° Southwest  Level FlightAware Approximate
05:08PM 32.7035 -80.3305 220° Southwest  Level FlightAware Approximate
05:09PM 32.6753 -80.3587 220° Southwest  Level FlightAware Approximate
05:10PM 32.6472 -80.3868 220° Southwest  Level FlightAware Approximate
05:11PM 32.6190 -80.4150 220° Southwest  Level FlightAware Approximate
05:12PM 32.5908 -80.4431 220° Southwest  Level FlightAware Approximate
05:13PM 32.5626 -80.4712 220° Southwest  Level FlightAware Approximate
05:14PM 32.5344 -80.4993 220° Southwest  Level FlightAware Approximate
05:15PM 32.5062 -80.5273 220° Southwest  Level FlightAware Approximate
05:16PM 32.4780 -80.5554 220° Southwest  Level FlightAware Approximate
05:17PM 32.4499 -80.5835 220° Southwest  Level FlightAware Approximate